Time;durP1;ratioP1;P1;durP2;ratioP2;P2;SDS_P1;SDS_P2;PMS_P1;PMS_P2;Temp;Humidity;BMP_temperature;BMP_pressure;BME280_temperature;BME280_humidity;BME280_pressure;Samples;Min_cycle;Max_cycle;Signal;HPM_P1;HPM_P2
2022/10/03 00:02:53;;;;;;;26.03;3.77;;;10.70;99.90;;;;;;5249009;28;20432;-49
2022/10/03 00:05:51;;;;;;;17.90;3.37;;;10.70;99.90;;;;;;5262892;28;20467;-50
2022/10/03 00:08:40;;;;;;;27.27;3.87;;;10.70;99.90;;;;;;5247313;28;20542;-50
2022/10/03 00:11:26;;;;;;;18.07;4.17;;;10.80;99.90;;;;;;5241948;28;20875;-50
2022/10/03 00:14:08;;;;;;;23.07;3.20;;;10.90;99.90;;;;;;5265444;28;20776;-51
2022/10/03 00:16:44;;;;;;;17.13;3.10;;;10.90;99.90;;;;;;5261863;28;20473;-48
2022/10/03 00:19:38;;;;;;;21.27;4.23;;;10.90;99.90;;;;;;5248170;28;20467;-51
2022/10/03 00:22:24;;;;;;;14.90;2.67;;;10.90;99.90;;;;;;5243941;28;20441;-50
2022/10/03 00:25:19;;;;;;;14.93;2.70;;;10.90;99.90;;;;;;5267213;28;20791;-52
2022/10/03 00:27:52;;;;;;;6.50;3.00;;;10.90;99.90;;;;;;5266876;28;20884;-51
2022/10/03 00:30:23;;;;;;;15.63;2.23;;;10.90;99.90;;;;;;5247821;28;20454;-50
2022/10/03 00:33:21;;;;;;;12.27;3.20;;;10.90;99.90;;;;;;5267980;28;20432;-50
2022/10/03 00:36:03;;;;;;;12.90;3.17;;;10.90;99.90;;;;;;5258582;28;20434;-52
2022/10/03 00:38:54;;;;;;;28.83;3.47;;;10.90;99.90;;;;;;5257909;28;20510;-51
2022/10/03 00:41:37;;;;;;;20.83;3.47;;;10.90;99.90;;;;;;5262450;28;20555;-51
2022/10/03 00:44:38;;;;;;;16.53;3.63;;;11.00;99.90;;;;;;5241369;28;20460;-48
2022/10/03 00:47:40;;;;;;;25.00;3.97;;;11.00;99.90;;;;;;5245991;28;20429;-53
2022/10/03 00:50:32;;;;;;;27.77;3.63;;;10.90;99.90;;;;;;5258924;28;20682;-50
2022/10/03 00:53:32;;;;;;;21.10;3.90;;;10.80;99.90;;;;;;5260855;28;20423;-48
2022/10/03 00:56:44;;;;;;;19.83;3.80;;;10.70;99.90;;;;;;5247207;28;20456;-53
2022/10/03 00:59:26;;;;;;;23.03;4.13;;;10.70;99.90;;;;;;5263020;28;20451;-52
2022/10/03 01:01:56;;;;;;;17.97;3.20;;;10.60;99.90;;;;;;5257208;28;20439;-51
2022/10/03 01:04:45;;;;;;;13.93;3.60;;;10.60;99.90;;;;;;5244494;28;20983;-52
2022/10/03 01:07:29;;;;;;;23.03;3.80;;;10.60;99.90;;;;;;5259294;28;20173;-51
2022/10/03 01:10:21;;;;;;;17.43;3.37;;;10.60;99.90;;;;;;5266837;28;20483;-50
2022/10/03 01:13:18;;;;;;;28.00;3.57;;;10.60;99.90;;;;;;5245547;28;20492;-50
2022/10/03 01:16:04;;;;;;;14.20;3.23;;;10.60;99.90;;;;;;5268301;28;20506;-51
2022/10/03 01:18:53;;;;;;;16.70;3.30;;;10.60;99.90;;;;;;5247175;28;20523;-51
2022/10/03 01:21:50;;;;;;;22.27;3.80;;;10.70;99.90;;;;;;5244028;28;20428;-50
2022/10/03 01:24:41;;;;;;;14.20;3.57;;;10.80;99.90;;;;;;5245400;28;20498;-50
2022/10/03 01:27:24;;;;;;;25.97;3.00;;;10.80;99.90;;;;;;5262079;28;20442;-51
2022/10/03 01:30:23;;;;;;;18.37;3.57;;;11.00;99.90;;;;;;5257558;28;20611;-50
2022/10/03 01:33:22;;;;;;;10.60;3.20;;;11.00;99.90;;;;;;5269980;28;20427;-51
2022/10/03 01:36:02;;;;;;;14.83;3.20;;;11.20;99.90;;;;;;5263310;28;20486;-52
2022/10/03 01:38:41;;;;;;;14.30;3.00;;;11.10;99.90;;;;;;5265889;28;20466;-51
2022/10/03 01:41:34;;;;;;;26.53;3.77;;;11.10;99.90;;;;;;5250458;28;20538;-47
2022/10/03 01:44:08;;;;;;;20.90;2.43;;;11.20;99.90;;;;;;5242112;28;20459;-50
2022/10/03 01:46:45;;;;;;;19.63;3.33;;;11.20;99.90;;;;;;5256911;28;20435;-48
2022/10/03 01:49:37;;;;;;;38.97;3.30;;;11.20;99.90;;;;;;5240687;28;20460;-51
2022/10/03 01:52:43;;;;;;;19.53;2.77;;;11.20;99.90;;;;;;5261889;28;20419;-50
2022/10/03 01:55:40;;;;;;;10.30;2.63;;;11.30;99.90;;;;;;5263815;28;20456;-50
2022/10/03 01:58:31;;;;;;;11.80;2.83;;;11.20;99.90;;;;;;5259708;28;20543;-50
2022/10/03 02:01:39;;;;;;;9.40;3.17;;;11.10;99.90;;;;;;5259704;28;20978;-50
2022/10/03 02:04:41;;;;;;;22.93;3.73;;;11.10;99.90;;;;;;5265069;28;20802;-51
2022/10/03 02:07:29;;;;;;;8.70;2.90;;;11.20;99.90;;;;;;5254560;28;20435;-51
2022/10/03 02:10:18;;;;;;;27.37;3.10;;;11.10;99.90;;;;;;5261832;28;20495;-51
2022/10/03 02:13:02;;;;;;;14.87;2.87;;;11.20;99.90;;;;;;5241324;28;20534;-52
2022/10/03 02:15:56;;;;;;;22.73;3.10;;;11.20;99.90;;;;;;5271386;28;20439;-51
2022/10/03 02:18:38;;;;;;;12.03;2.37;;;11.30;99.90;;;;;;5244960;28;20969;-49
2022/10/03 02:21:23;;;;;;;14.93;3.70;;;11.30;99.90;;;;;;5267984;28;20443;-49
2022/10/03 02:24:13;;;;;;;21.23;2.90;;;11.40;99.90;;;;;;5265571;28;20634;-47
2022/10/03 02:27:03;;;;;;;23.10;4.37;;;11.40;99.90;;;;;;5260188;28;20495;-52
2022/10/03 02:30:08;;;;;;;9.20;2.47;;;11.40;99.90;;;;;;5269953;28;20451;-50
2022/10/03 02:33:05;;;;;;;12.93;2.50;;;11.30;99.90;;;;;;5251980;28;20438;-49
2022/10/03 02:36:06;;;;;;;10.63;2.33;;;11.40;99.90;;;;;;5255986;28;20585;-50
2022/10/03 02:38:56;;;;;;;26.63;2.70;;;11.40;99.90;;;;;;5259760;28;20454;-51
2022/10/03 02:42:08;;;;;;;21.70;3.00;;;11.40;99.90;;;;;;5247710;28;20416;-49
2022/10/03 02:44:53;;;;;;;9.23;3.23;;;11.40;99.90;;;;;;5232383;28;20532;-52
2022/10/03 02:47:24;;;;;;;12.60;3.00;;;11.40;99.90;;;;;;5268238;28;20431;-51
2022/10/03 02:50:36;;;;;;;10.90;2.37;;;11.40;99.90;;;;;;5268958;28;20452;-50
2022/10/03 02:53:24;;;;;;;13.57;2.90;;;11.40;99.90;;;;;;5233350;28;20189;-50
2022/10/03 02:55:54;;;;;;;14.07;2.97;;;11.40;99.90;;;;;;5254061;28;20931;-51
2022/10/03 02:58:40;;;;;;;5.60;2.57;;;11.50;99.90;;;;;;5262633;28;20453;-51
2022/10/03 03:01:36;;;;;;;11.47;2.40;;;11.50;99.90;;;;;;5263117;28;20649;-51
2022/10/03 03:04:47;;;;;;;22.13;2.40;;;11.50;99.90;;;;;;5258257;28;20464;-53
2022/10/03 03:07:25;;;;;;;8.83;2.10;;;11.50;99.90;;;;;;5265503;28;20919;-50
2022/10/03 03:10:20;;;;;;;14.53;3.17;;;11.50;99.90;;;;;;5268371;28;20455;-50
2022/10/03 03:13:07;;;;;;;6.37;2.80;;;11.50;99.90;;;;;;5249714;28;20775;-50
2022/10/03 03:16:17;;;;;;;14.37;2.60;;;11.50;99.90;;;;;;5245072;28;20440;-52
2022/10/03 03:19:25;;;;;;;10.50;2.50;;;11.50;99.90;;;;;;5259899;28;20466;-51
2022/10/03 03:22:18;;;;;;;17.37;2.97;;;11.50;99.90;;;;;;5251949;28;20436;-50
2022/10/03 03:25:07;;;;;;;17.90;2.80;;;11.50;99.90;;;;;;5267760;28;20504;-53
2022/10/03 03:27:48;;;;;;;25.23;3.90;;;11.50;99.90;;;;;;5250206;28;20433;-50
2022/10/03 03:30:28;;;;;;;13.07;2.20;;;11.50;99.90;;;;;;5259061;28;20462;-51
2022/10/03 03:33:37;;;;;;;18.83;2.47;;;11.50;99.90;;;;;;5263022;28;20918;-50
2022/10/03 03:36:29;;;;;;;4.33;1.77;;;11.50;99.90;;;;;;5250862;28;20942;-50
2022/10/03 03:39:15;;;;;;;9.00;2.70;;;11.50;99.90;;;;;;5246763;28;20470;-46
2022/10/03 03:41:58;;;;;;;8.83;2.87;;;11.50;99.90;;;;;;5264208;28;20870;-47
2022/10/03 03:44:59;;;;;;;12.50;2.43;;;11.40;99.90;;;;;;5245210;28;20469;-47
2022/10/03 03:48:04;;;;;;;9.80;2.10;;;11.40;99.90;;;;;;5272909;28;20469;-47
2022/10/03 03:51:03;;;;;;;22.57;3.77;;;11.40;99.90;;;;;;5259577;28;20412;-52
2022/10/03 03:53:54;;;;;;;13.93;2.67;;;11.40;99.90;;;;;;5267115;28;20904;-47
2022/10/03 03:56:30;;;;;;;17.67;2.97;;;11.40;99.90;;;;;;5265364;28;20483;-45
2022/10/03 03:59:27;;;;;;;14.70;2.57;;;11.40;99.90;;;;;;5266153;28;20473;-45
2022/10/03 04:02:07;;;;;;;24.33;3.07;;;11.40;99.90;;;;;;5247117;28;20467;-46
2022/10/03 04:05:07;;;;;;;11.67;2.63;;;11.40;99.90;;;;;;5266057;28;20959;-45
2022/10/03 04:07:55;;;;;;;17.90;2.87;;;11.40;99.90;;;;;;5266266;28;20423;-48
2022/10/03 04:10:55;;;;;;;11.43;3.00;;;11.40;99.90;;;;;;5263220;28;20423;-46
2022/10/03 04:13:41;;;;;;;5.97;2.27;;;11.40;99.90;;;;;;5254586;28;20525;-48
2022/10/03 04:18:56;;;;;;;17.43;2.57;;;11.40;99.90;;;;;;5261652;28;20446;-53
2022/10/03 04:19:27;;;;;;;15.47;2.70;;;11.40;99.90;;;;;;5268209;28;20463;-46
2022/10/03 04:22:20;;;;;;;14.63;3.07;;;11.40;99.90;;;;;;5269015;28;20439;-47
2022/10/03 04:25:33;;;;;;;15.70;2.73;;;11.40;99.90;;;;;;5269572;28;20471;-46
2022/10/03 04:28:40;;;;;;;11.47;2.43;;;11.40;99.90;;;;;;5241357;28;20447;-47
2022/10/03 04:31:25;;;;;;;7.90;2.17;;;11.40;99.90;;;;;;5263332;28;20424;-47
2022/10/03 04:34:20;;;;;;;5.40;2.67;;;11.40;99.90;;;;;;5242539;28;20442;-49
2022/10/03 04:37:23;;;;;;;17.07;2.90;;;11.40;99.90;;;;;;5257640;28;20428;-47
2022/10/03 04:40:17;;;;;;;8.10;3.00;;;11.40;99.90;;;;;;5243149;28;20477;-47
2022/10/03 04:43:14;;;;;;;7.40;2.17;;;11.40;99.90;;;;;;5265206;28;20436;-46
2022/10/03 04:46:08;;;;;;;9.50;2.43;;;11.40;99.90;;;;;;5256702;28;20556;-47
2022/10/03 04:49:17;;;;;;;12.67;3.00;;;11.40;99.90;;;;;;5223793;28;20498;-47
2022/10/03 04:52:10;;;;;;;7.20;2.50;;;11.40;99.90;;;;;;5264405;28;20915;-46
2022/10/03 04:55:06;;;;;;;12.20;3.27;;;11.40;99.90;;;;;;5265416;28;20685;-47
2022/10/03 04:57:47;;;;;;;12.67;2.80;;;11.40;99.90;;;;;;5237632;28;20437;-47
2022/10/03 05:00:46;;;;;;;18.30;2.43;;;11.50;99.90;;;;;;5258941;28;20467;-46
2022/10/03 05:03:36;;;;;;;17.60;2.67;;;11.40;99.90;;;;;;5243758;28;20598;-46
2022/10/03 05:06:35;;;;;;;12.80;3.10;;;11.40;99.90;;;;;;5271007;28;20446;-46
2022/10/03 05:09:32;;;;;;;8.80;2.90;;;11.50;99.90;;;;;;5265743;28;20455;-46
2022/10/03 05:12:17;;;;;;;12.80;2.67;;;11.40;99.90;;;;;;5269876;28;20458;-45
2022/10/03 05:15:13;;;;;;;18.03;2.70;;;11.50;99.90;;;;;;5251195;28;20423;-46
2022/10/03 05:18:02;;;;;;;6.27;2.30;;;11.40;99.90;;;;;;5265061;28;20423;-45
2022/10/03 05:21:13;;;;;;;11.23;2.60;;;11.40;99.90;;;;;;5255947;28;20969;-46
2022/10/03 05:24:01;;;;;;;26.13;3.70;;;11.50;99.90;;;;;;5190863;28;20469;-46
2022/10/03 05:26:50;;;;;;;19.27;3.00;;;11.40;99.90;;;;;;5256571;28;20431;-46
2022/10/03 05:29:30;;;;;;;18.77;3.13;;;11.40;99.90;;;;;;5248217;28;20444;-47
2022/10/03 05:32:31;;;;;;;12.77;2.60;;;11.40;99.90;;;;;;5270322;28;20446;-46
2022/10/03 05:35:02;;;;;;;13.67;2.97;;;11.40;99.90;;;;;;5247420;28;20442;-45
2022/10/03 05:38:05;;;;;;;15.37;2.87;;;11.40;99.90;;;;;;5268673;28;20444;-46
2022/10/03 05:40:40;;;;;;;9.40;2.50;;;11.40;99.90;;;;;;5265270;28;20595;-46
2022/10/03 05:43:23;;;;;;;8.00;2.17;;;11.50;99.90;;;;;;5253224;28;20431;-46
2022/10/03 05:46:20;;;;;;;17.23;2.93;;;11.40;99.90;;;;;;5269310;28;20434;-52
2022/10/03 05:48:57;;;;;;;18.03;2.97;;;11.30;99.90;;;;;;5264014;28;20459;-47
2022/10/03 05:51:49;;;;;;;12.47;3.10;;;11.40;99.90;;;;;;5268130;28;20911;-46
2022/10/03 05:54:46;;;;;;;19.40;3.10;;;11.40;99.90;;;;;;5248746;28;20508;-47
2022/10/03 05:57:44;;;;;;;20.87;3.07;;;11.40;99.90;;;;;;5267461;28;22431;-48
2022/10/03 06:00:21;;;;;;;12.00;2.80;;;11.50;99.90;;;;;;5267252;28;20538;-47
2022/10/03 06:03:20;;;;;;;13.90;2.80;;;11.70;99.90;;;;;;5267207;28;20450;-46
2022/10/03 06:06:29;;;;;;;12.33;2.63;;;11.70;99.90;;;;;;5264717;28;20502;-46
2022/10/03 06:09:31;;;;;;;12.03;3.10;;;11.80;99.90;;;;;;5264379;28;20451;-50
2022/10/03 06:12:25;;;;;;;12.03;2.60;;;11.90;99.90;;;;;;5236891;28;20776;-49
2022/10/03 06:15:26;;;;;;;15.90;2.77;;;12.10;99.90;;;;;;5258791;28;20436;-51
2022/10/03 06:18:31;;;;;;;21.33;3.80;;;12.40;99.90;;;;;;5263120;28;20493;-49
2022/10/03 06:21:12;;;;;;;15.83;2.97;;;12.50;99.90;;;;;;5229733;28;20556;-51
2022/10/03 06:24:16;;;;;;;14.10;2.80;;;12.60;99.90;;;;;;5257528;28;20442;-46
2022/10/03 06:27:08;;;;;;;19.27;2.90;;;12.70;99.90;;;;;;5265632;28;20439;-47
2022/10/03 06:29:53;;;;;;;8.63;2.80;;;12.50;99.90;;;;;;5238905;28;20536;-46
2022/10/03 06:32:39;;;;;;;11.10;2.50;;;12.40;99.90;;;;;;5266127;28;20438;-46
2022/10/03 06:35:41;;;;;;;9.13;2.47;;;12.40;99.90;;;;;;5267348;28;20436;-46
2022/10/03 06:38:15;;;;;;;8.60;2.60;;;12.20;99.90;;;;;;5266214;28;20476;-45
2022/10/03 06:41:26;;;;;;;20.30;2.80;;;12.20;99.90;;;;;;5259991;28;20427;-46
2022/10/03 06:44:15;;;;;;;11.43;2.40;;;12.20;99.90;;;;;;5269237;28;20811;-45
2022/10/03 06:47:13;;;;;;;18.60;3.20;;;12.20;99.90;;;;;;5247731;28;20825;-48
2022/10/03 06:50:21;;;;;;;10.77;3.00;;;12.20;99.90;;;;;;5250197;28;20509;-46
2022/10/03 06:53:13;;;;;;;9.93;3.17;;;12.10;99.90;;;;;;5267886;28;20488;-49
2022/10/03 06:56:22;;;;;;;23.50;2.83;;;12.10;99.90;;;;;;5262991;28;20530;-46
2022/10/03 06:59:04;;;;;;;25.50;3.60;;;12.00;99.90;;;;;;5265993;28;20463;-47
2022/10/03 07:02:05;;;;;;;15.30;3.10;;;12.10;99.90;;;;;;5261450;28;20459;-51
2022/10/03 07:04:42;;;;;;;17.43;2.33;;;12.30;99.90;;;;;;5265623;28;20549;-46
2022/10/03 07:07:50;;;;;;;7.80;2.63;;;12.50;99.90;;;;;;5264942;28;20495;-50
2022/10/03 07:10:48;;;;;;;9.03;2.00;;;13.00;99.90;;;;;;5261599;28;20532;-48
2022/10/03 07:13:53;;;;;;;8.73;2.43;;;13.20;99.90;;;;;;5267395;28;21013;-46
2022/10/03 07:16:57;;;;;;;7.17;1.93;;;13.10;99.90;;;;;;5262967;28;20928;-46
2022/10/03 07:19:52;;;;;;;14.03;2.73;;;13.00;99.90;;;;;;5268799;28;20802;-47
2022/10/03 07:22:50;;;;;;;14.90;2.60;;;12.80;99.90;;;;;;5260763;28;20446;-46
2022/10/03 07:25:42;;;;;;;18.63;2.80;;;12.80;99.90;;;;;;5270225;28;20949;-46
2022/10/03 07:28:43;;;;;;;13.80;2.57;;;12.80;99.90;;;;;;5265706;28;20492;-46
2022/10/03 07:31:32;;;;;;;13.47;2.23;;;12.70;99.90;;;;;;5261141;28;20748;-46
2022/10/03 07:34:23;;;;;;;9.50;3.17;;;12.70;99.90;;;;;;5241669;28;20506;-46
2022/10/03 07:40:23;;;;;;;8.07;2.77;;;12.90;99.90;;;;;;5254898;28;20857;-51
2022/10/03 07:43:40;;;;;;;7.97;2.77;;;13.00;99.90;;;;;;5268395;28;20457;-49
2022/10/03 07:46:32;;;;;;;14.93;3.07;;;13.20;99.90;;;;;;5265665;28;20476;-46
2022/10/03 07:49:44;;;;;;;14.80;2.80;;;13.40;99.90;;;;;;5264616;28;20555;-46
2022/10/03 07:52:38;;;;;;;9.93;2.53;;;13.30;99.90;;;;;;5265636;28;20439;-46
2022/10/03 07:55:26;;;;;;;13.63;3.50;;;13.10;99.90;;;;;;5249159;28;20434;-52
2022/10/03 07:58:24;;;;;;;13.57;2.10;;;13.10;99.90;;;;;;5259061;28;20435;-51
2022/10/03 08:01:00;;;;;;;11.80;3.03;;;13.10;99.90;;;;;;5258234;28;20427;-49
2022/10/03 08:04:09;;;;;;;11.50;3.00;;;13.20;99.90;;;;;;5233544;28;20432;-46
2022/10/03 08:06:44;;;;;;;19.63;3.97;;;13.20;99.90;;;;;;5256869;28;20435;-48
2022/10/03 08:10:05;;;;;;;14.80;2.87;;;13.20;99.90;;;;;;5246599;28;20873;-46
2022/10/03 08:12:39;;;;;;;10.23;2.50;;;13.20;99.90;;;;;;5269109;28;20454;-45
2022/10/03 08:15:43;;;;;;;21.23;3.00;;;13.30;99.90;;;;;;5269104;28;20451;-52
2022/10/03 08:18:51;;;;;;;10.37;2.90;;;13.10;99.90;;;;;;5211335;28;20456;-49
2022/10/03 08:21:37;;;;;;;6.87;2.00;;;13.10;99.90;;;;;;5251898;28;20432;-47
2022/10/03 08:24:48;;;;;;;10.80;2.70;;;13.30;99.90;;;;;;5266694;28;20503;-49
2022/10/03 08:27:22;;;;;;;17.50;2.57;;;13.40;99.90;;;;;;5250431;28;20424;-49
2022/10/03 08:30:21;;;;;;;18.77;2.80;;;13.60;99.90;;;;;;5264864;28;20424;-51
2022/10/03 08:33:15;;;;;;;17.77;3.30;;;13.70;99.90;;;;;;5262164;28;20987;-49
2022/10/03 08:35:48;;;;;;;6.43;2.60;;;13.60;99.90;;;;;;5266033;28;20439;-50
2022/10/03 08:38:47;;;;;;;10.30;2.30;;;13.60;99.90;;;;;;5256365;28;21025;-49
2022/10/03 08:41:39;;;;;;;15.33;3.30;;;13.70;99.90;;;;;;5265999;28;20530;-48
2022/10/03 08:44:58;;;;;;;15.90;2.60;;;13.50;99.90;;;;;;5240624;28;20464;-48
2022/10/03 08:47:59;;;;;;;17.97;3.70;;;13.60;99.90;;;;;;5206360;28;20435;-49
2022/10/03 08:50:34;;;;;;;6.93;3.57;;;13.70;99.90;;;;;;5260727;28;20456;-48
2022/10/03 08:53:33;;;;;;;9.63;2.83;;;13.60;99.90;;;;;;5242422;28;20435;-48
2022/10/03 08:56:20;;;;;;;7.13;2.50;;;13.60;99.90;;;;;;5246924;28;20432;-48
2022/10/03 08:59:27;;;;;;;5.47;2.23;;;13.70;99.90;;;;;;5245156;28;20453;-49
2022/10/03 09:02:24;;;;;;;14.10;3.50;;;14.10;99.90;;;;;;5267254;28;20430;-50
2022/10/03 09:05:24;;;;;;;17.80;3.27;;;14.40;99.90;;;;;;5264046;28;20974;-49
2022/10/03 09:08:40;;;;;;;12.20;3.20;;;14.90;99.90;;;;;;5244760;28;20446;-48
2022/10/03 09:11:29;;;;;;;10.23;2.77;;;15.00;99.90;;;;;;5241412;28;20443;-49
2022/10/03 09:14:15;;;;;;;15.07;3.50;;;14.80;99.90;;;;;;5267342;28;20457;-47
2022/10/03 09:17:29;;;;;;;13.47;3.13;;;14.90;99.90;;;;;;5248242;28;20443;-48
2022/10/03 09:20:01;;;;;;;8.23;3.13;;;14.60;99.90;;;;;;5250590;28;20501;-49
2022/10/03 09:22:53;;;;;;;10.53;2.80;;;14.60;99.90;;;;;;5258874;28;20488;-47
2022/10/03 09:25:41;;;;;;;11.80;2.83;;;14.70;99.90;;;;;;5240467;28;20483;-48
2022/10/03 09:28:31;;;;;;;12.90;3.37;;;14.90;99.90;;;;;;5251488;28;20460;-47
2022/10/03 09:31:23;;;;;;;6.33;2.50;;;14.90;99.90;;;;;;5243957;28;20464;-50
2022/10/03 09:33:57;;;;;;;12.93;2.97;;;14.80;99.90;;;;;;5244194;28;20455;-49
2022/10/03 09:36:46;;;;;;;13.43;4.60;;;14.80;99.90;;;;;;5263961;28;20437;-48
2022/10/03 09:39:38;;;;;;;12.43;3.23;;;15.00;99.90;;;;;;5267975;28;20459;-47
2022/10/03 09:42:34;;;;;;;7.70;2.50;;;15.20;99.90;;;;;;5240073;28;20446;-49
2022/10/03 09:45:35;;;;;;;5.73;2.20;;;15.30;99.90;;;;;;5266919;28;20591;-47
2022/10/03 09:48:47;;;;;;;8.57;2.60;;;15.20;99.90;;;;;;5266231;28;20442;-48
2022/10/03 09:51:42;;;;;;;7.50;3.10;;;15.20;99.90;;;;;;5211686;28;20443;-49
2022/10/03 09:54:35;;;;;;;23.57;2.70;;;15.00;99.90;;;;;;5260843;28;20971;-48
2022/10/03 09:57:46;;;;;;;6.90;2.23;;;15.10;99.90;;;;;;5260896;28;20830;-47
2022/10/03 10:00:26;;;;;;;7.50;2.63;;;15.30;99.90;;;;;;5256944;28;20443;-49
2022/10/03 10:03:17;;;;;;;15.93;3.70;;;15.60;99.90;;;;;;5241866;28;20446;-46
2022/10/03 10:06:04;;;;;;;13.53;3.00;;;15.40;99.90;;;;;;5243434;28;20505;-52
2022/10/03 10:09:01;;;;;;;31.17;4.27;;;15.00;99.90;;;;;;5264984;28;20784;-49
2022/10/03 10:12:15;;;;;;;9.60;2.43;;;15.00;99.90;;;;;;5219325;28;20482;-48
2022/10/03 10:15:03;;;;;;;13.10;3.10;;;15.00;99.90;;;;;;5264728;28;20605;-49
2022/10/03 10:18:04;;;;;;;14.83;4.93;;;15.10;99.90;;;;;;5268506;28;20759;-49
2022/10/03 10:20:52;;;;;;;8.50;4.70;;;15.20;99.90;;;;;;5265296;28;20439;-48
2022/10/03 10:23:56;;;;;;;7.53;2.77;;;15.30;99.90;;;;;;5262148;28;20436;-48
2022/10/03 10:27:16;;;;;;;9.17;2.80;;;15.60;99.90;;;;;;5238320;28;20973;-50
2022/10/03 10:29:47;;;;;;;9.53;2.63;;;15.50;99.90;;;;;;5211837;28;20509;-52
2022/10/03 10:32:47;;;;;;;11.23;2.60;;;15.70;99.90;;;;;;5257273;28;20821;-49
2022/10/03 10:35:55;;;;;;;30.40;3.53;;;15.80;99.90;;;;;;5264870;28;20185;-49
2022/10/03 10:38:41;;;;;;;8.97;2.50;;;15.70;99.90;;;;;;5265872;28;24436;-50
2022/10/03 10:41:33;;;;;;;9.50;2.10;;;15.80;99.90;;;;;;5268239;28;20443;-50
2022/10/03 10:44:50;;;;;;;9.77;3.57;;;15.70;99.90;;;;;;5266736;28;20558;-50
2022/10/03 10:47:21;;;;;;;7.07;2.17;;;15.20;99.90;;;;;;5264318;28;20933;-49
2022/10/03 10:50:15;;;;;;;23.10;3.17;;;15.20;99.90;;;;;;5259482;28;20554;-48
2022/10/03 10:53:07;;;;;;;8.47;3.40;;;15.10;99.90;;;;;;5269613;28;20250;-47
2022/10/03 10:56:16;;;;;;;11.47;2.97;;;15.00;99.90;;;;;;5270185;28;20497;-48
2022/10/03 10:59:21;;;;;;;5.90;1.73;;;14.90;99.90;;;;;;5271822;28;20486;-47
2022/10/03 11:02:27;;;;;;;8.07;2.80;;;15.00;99.90;;;;;;5265399;28;20452;-49
2022/10/03 11:05:20;;;;;;;10.40;2.60;;;15.10;99.90;;;;;;5243127;28;20601;-51
2022/10/03 11:08:15;;;;;;;14.37;2.80;;;15.30;99.90;;;;;;5267343;28;20461;-49
2022/10/03 11:11:31;;;;;;;13.93;3.30;;;15.40;99.90;;;;;;5271692;28;20916;-48
2022/10/03 11:14:30;;;;;;;15.33;3.17;;;15.50;99.90;;;;;;5265230;28;20447;-49
2022/10/03 11:17:25;;;;;;;11.63;2.90;;;15.70;99.90;;;;;;5269082;28;20466;-49
2022/10/03 11:20:02;;;;;;;12.10;2.50;;;16.00;99.90;;;;;;5266490;28;20463;-50
2022/10/03 11:23:09;;;;;;;6.20;2.00;;;16.10;99.90;;;;;;5267609;28;20919;-52
2022/10/03 11:26:01;;;;;;;4.10;2.00;;;16.20;99.90;;;;;;5247150;28;20470;-51
2022/10/03 11:28:59;;;;;;;10.93;2.17;;;16.00;99.90;;;;;;5266500;28;20453;-48
2022/10/03 11:31:48;;;;;;;5.80;1.80;;;16.00;99.90;;;;;;5262557;28;20439;-49
2022/10/03 11:34:47;;;;;;;7.60;2.00;;;15.80;99.90;;;;;;5257805;28;20436;-52
2022/10/03 11:37:31;;;;;;;9.10;2.57;;;16.00;99.90;;;;;;5266215;28;20815;-49
2022/10/03 11:40:27;;;;;;;8.63;2.00;;;16.00;99.90;;;;;;5264718;28;20467;-48
2022/10/03 11:43:35;;;;;;;24.70;6.13;;;15.80;99.90;;;;;;5274581;28;20979;-49
2022/10/03 11:46:39;;;;;;;10.00;2.80;;;15.50;99.90;;;;;;5270615;28;20500;-49
2022/10/03 11:49:28;;;;;;;8.90;2.73;;;15.40;99.90;;;;;;5248362;28;20452;-49
2022/10/03 11:52:41;;;;;;;11.67;2.47;;;15.30;99.90;;;;;;5246620;28;20439;-49
2022/10/03 11:55:28;;;;;;;12.90;3.07;;;15.30;99.90;;;;;;5264978;28;20826;-49
2022/10/03 11:58:22;;;;;;;13.73;3.50;;;15.40;99.90;;;;;;5267999;28;20427;-49
2022/10/03 12:01:19;;;;;;;12.77;2.40;;;15.50;99.90;;;;;;5249708;28;21038;-48
2022/10/03 12:04:14;;;;;;;5.80;2.17;;;15.50;99.90;;;;;;5265622;28;20509;-49
2022/10/03 12:10:12;;;;;;;7.10;2.33;;;15.40;99.90;;;;;;5265428;28;20485;-49
2022/10/03 12:12:53;;;;;;;12.83;3.80;;;15.40;99.90;;;;;;5251427;28;20439;-50
2022/10/03 12:15:39;;;;;;;11.40;2.60;;;15.50;99.90;;;;;;5261837;28;20477;-48
2022/10/03 12:18:19;;;;;;;7.07;3.13;;;15.50;99.90;;;;;;5243841;28;20992;-51
2022/10/03 12:21:03;;;;;;;5.37;2.10;;;15.30;99.90;;;;;;5259430;28;20522;-47
2022/10/03 12:24:01;;;;;;;11.43;2.50;;;15.20;99.90;;;;;;5261397;28;20428;-49
2022/10/03 12:26:56;;;;;;;7.70;1.80;;;15.30;99.90;;;;;;5265183;28;20440;-47
2022/10/03 12:29:31;;;;;;;6.70;1.70;;;15.30;99.90;;;;;;5244755;28;20467;-49
2022/10/03 12:32:23;;;;;;;14.17;4.37;;;15.30;99.90;;;;;;5266807;28;20434;-49
2022/10/03 12:35:07;;;;;;;11.33;3.97;;;15.20;99.90;;;;;;5245827;28;20431;-48
2022/10/03 12:37:47;;;;;;;6.77;2.60;;;15.30;99.90;;;;;;5263125;28;20489;-48
2022/10/03 12:40:26;;;;;;;11.50;2.37;;;15.50;99.90;;;;;;5246484;28;20463;-49
2022/10/03 12:43:12;;;;;;;10.37;1.70;;;15.60;99.90;;;;;;5262643;28;20435;-49
2022/10/03 12:45:53;;;;;;;12.47;3.07;;;15.80;99.90;;;;;;5264755;28;20518;-50
2022/10/03 12:48:41;;;;;;;11.03;2.50;;;16.00;99.90;;;;;;5242737;28;20881;-47
2022/10/03 12:51:30;;;;;;;4.83;1.80;;;16.00;99.90;;;;;;5260854;28;20519;-48
2022/10/03 12:54:42;;;;;;;12.90;2.40;;;16.00;99.90;;;;;;5259650;28;20988;-48
2022/10/03 12:57:31;;;;;;;11.33;2.17;;;16.00;99.90;;;;;;5260718;28;20455;-48
2022/10/03 13:00:06;;;;;;;4.70;2.47;;;15.80;99.90;;;;;;5264083;28;20455;-48
2022/10/03 13:03:02;;;;;;;14.93;2.60;;;15.80;99.90;;;;;;5259228;28;20539;-53
2022/10/03 13:05:57;;;;;;;4.70;2.63;;;15.90;99.90;;;;;;5229161;28;20480;-49
2022/10/03 13:08:28;;;;;;;3.27;1.60;;;16.10;99.90;;;;;;5246601;28;20466;-48
2022/10/03 13:11:29;;;;;;;35.97;19.00;;;16.30;99.90;;;;;;5250794;28;20428;-51
2022/10/03 13:14:08;;;;;;;4.57;2.17;;;16.50;99.90;;;;;;5243432;28;20185;-51
2022/10/03 13:16:47;;;;;;;3.80;1.77;;;16.70;99.90;;;;;;5244739;28;20459;-49
2022/10/03 13:19:23;;;;;;;5.60;2.70;;;16.80;99.90;;;;;;5268071;28;20488;-46
2022/10/03 13:22:32;;;;;;;17.20;4.20;;;16.90;99.90;;;;;;5269690;28;20416;-49
2022/10/03 13:25:07;;;;;;;6.77;3.33;;;17.00;99.90;;;;;;5264961;28;20454;-51
2022/10/03 13:28:15;;;;;;;2.27;1.40;;;17.10;99.90;;;;;;5267890;28;20510;-49
2022/10/03 13:30:48;;;;;;;11.23;2.70;;;17.10;99.90;;;;;;5266490;28;20453;-51
2022/10/03 13:33:24;;;;;;;5.67;2.43;;;16.90;99.90;;;;;;5255513;28;20467;-51
2022/10/03 13:36:01;;;;;;;8.13;1.53;;;16.80;99.90;;;;;;5262273;28;20463;-49
2022/10/03 13:39:09;;;;;;;7.30;3.77;;;16.70;99.90;;;;;;5240761;28;20979;-53
2022/10/03 13:42:02;;;;;;;10.93;2.20;;;16.80;99.90;;;;;;5260073;28;20575;-50
2022/10/03 13:45:05;;;;;;;5.83;2.30;;;16.90;99.90;;;;;;5246998;28;20463;-53
2022/10/03 13:47:44;;;;;;;9.50;2.40;;;16.90;99.90;;;;;;5253046;28;20423;-53
2022/10/03 13:50:23;;;;;;;14.10;2.23;;;16.70;99.90;;;;;;5262785;28;20439;-51
2022/10/03 13:53:22;;;;;;;9.70;4.20;;;16.50;99.90;;;;;;5262889;28;20476;-50
2022/10/03 13:56:00;;;;;;;7.90;1.97;;;16.40;99.90;;;;;;5244235;28;20809;-51
2022/10/03 13:59:26;;;;;;;3.27;1.03;;;16.50;99.90;;;;;;5266224;28;20455;-49
2022/10/03 14:02:22;;;;;;;5.57;1.40;;;16.50;99.90;;;;;;5216255;28;20862;-50
2022/10/03 14:05:17;;;;;;;16.23;6.03;;;16.40;99.90;;;;;;5268818;28;20468;-49
2022/10/03 14:08:16;;;;;;;13.37;3.30;;;16.20;99.90;;;;;;5241542;28;21783;-49
2022/10/03 14:11:23;;;;;;;5.53;1.80;;;16.20;99.90;;;;;;5256665;28;20962;-53
2022/10/03 14:14:27;;;;;;;5.70;1.80;;;16.10;99.90;;;;;;5263406;28;20514;-51
2022/10/03 14:17:12;;;;;;;8.70;2.00;;;16.00;99.90;;;;;;5267357;28;20783;-52
2022/10/03 14:20:14;;;;;;;8.13;2.13;;;16.00;99.90;;;;;;5264818;28;20456;-53
2022/10/03 14:23:10;;;;;;;4.53;2.17;;;16.00;99.90;;;;;;5263972;28;20468;-51
2022/10/03 14:25:59;;;;;;;20.10;8.43;;;16.00;99.90;;;;;;5246078;28;20506;-51
2022/10/03 14:28:35;;;;;;;7.00;4.17;;;16.00;99.90;;;;;;5263004;28;20459;-50
2022/10/03 14:31:25;;;;;;;11.70;3.90;;;15.90;99.90;;;;;;5271965;28;20431;-51
2022/10/03 14:34:13;;;;;;;6.60;2.50;;;15.90;99.90;;;;;;5261684;28;20519;-52
2022/10/03 14:37:31;;;;;;;8.23;3.50;;;15.70;99.90;;;;;;5264643;28;20837;-49
2022/10/03 14:40:10;;;;;;;6.27;2.77;;;15.60;99.90;;;;;;5165664;28;20474;-49
2022/10/03 14:43:00;;;;;;;36.13;10.07;;;15.80;99.90;;;;;;5190702;28;20435;-49
2022/10/03 14:45:38;;;;;;;4.53;2.80;;;15.80;99.90;;;;;;5240297;28;20531;-50
2022/10/03 14:48:37;;;;;;;8.37;3.30;;;15.80;99.90;;;;;;5246611;28;20508;-50
2022/10/03 14:51:23;;;;;;;27.27;8.53;;;15.80;99.90;;;;;;5250752;28;20439;-49
2022/10/03 14:54:13;;;;;;;7.73;3.10;;;15.90;99.90;;;;;;5267177;28;20510;-55
2022/10/03 14:56:46;;;;;;;6.90;3.23;;;15.90;99.90;;;;;;5270885;28;20764;-53
2022/10/03 14:59:33;;;;;;;5.80;2.23;;;15.90;99.90;;;;;;5251871;28;20447;-55